createdAt,value
2019-02-05T00:00:07.184Z,-0.59
2019-02-05T00:01:11.290Z,-0.62
2019-02-05T00:02:15.448Z,-0.57
2019-02-05T00:03:19.719Z,-0.59
2019-02-05T00:04:23.912Z,-0.61
2019-02-05T00:05:28.041Z,-0.58
2019-02-05T00:06:32.330Z,-0.58
2019-02-05T00:07:36.554Z,-0.57
2019-02-05T00:08:40.748Z,-0.52
2019-02-05T00:09:44.754Z,-0.51
2019-02-05T00:10:49.041Z,-0.54
2019-02-05T00:11:53.201Z,-0.57
2019-02-05T00:12:57.402Z,-0.58
2019-02-05T00:14:01.502Z,-0.49
2019-02-05T00:15:05.649Z,-0.49
2019-02-05T00:16:09.825Z,-0.58
2019-02-05T00:17:14.069Z,-0.66
2019-02-05T00:18:18.401Z,-0.54
2019-02-05T00:19:22.432Z,-0.62
2019-02-05T00:20:26.572Z,-0.57
2019-02-05T00:21:30.802Z,-0.60
2019-02-05T00:22:34.885Z,-0.57
2019-02-05T00:23:39.009Z,-0.57
2019-02-05T00:24:43.235Z,-0.52
2019-02-05T00:25:47.452Z,-0.56
2019-02-05T00:26:51.557Z,-0.55
2019-02-05T00:27:55.786Z,-0.56
2019-02-05T00:28:59.980Z,-0.53
2019-02-05T00:30:04.169Z,-0.52
2019-02-05T00:31:08.386Z,-0.56
2019-02-05T00:32:12.574Z,-0.61
2019-02-05T00:33:16.718Z,-0.54
2019-02-05T00:34:20.906Z,-0.57
2019-02-05T00:35:25.089Z,-0.52
2019-02-05T00:36:29.315Z,-0.61
2019-02-05T00:37:33.439Z,-0.58
2019-02-05T00:38:37.671Z,-0.59
2019-02-05T00:39:41.877Z,-0.56
2019-02-05T00:40:46.011Z,-0.57
2019-02-05T00:41:50.157Z,-0.55
2019-02-05T00:42:54.374Z,-0.58
2019-02-05T00:43:58.466Z,-0.53
2019-02-05T00:45:02.722Z,-0.59
2019-02-05T00:46:06.934Z,-0.61
2019-02-05T00:47:11.177Z,-0.65
2019-02-05T00:48:15.266Z,-0.66
2019-02-05T00:49:19.450Z,-0.58
2019-02-05T00:50:23.678Z,-0.59
2019-02-05T00:51:27.881Z,-0.60
2019-02-05T00:52:32.062Z,-0.57
2019-02-05T00:53:36.244Z,-0.54
2019-02-05T00:54:40.397Z,-0.60
2019-02-05T00:55:44.528Z,-0.55
2019-02-05T00:56:48.808Z,-0.66
2019-02-05T00:57:52.883Z,-0.56
2019-02-05T00:58:57.115Z,-0.55
2019-02-05T01:00:01.239Z,-0.54
2019-02-05T01:01:05.387Z,-0.60
2019-02-05T01:02:09.672Z,-0.54
2019-02-05T01:03:13.826Z,-0.60
2019-02-05T01:04:17.999Z,-0.56
2019-02-05T01:05:22.104Z,-0.56
2019-02-05T01:06:26.345Z,-0.59
2019-02-05T01:07:30.433Z,-0.54
2019-02-05T01:08:34.576Z,-0.51
2019-02-05T01:09:38.747Z,-0.53
2019-02-05T01:10:42.960Z,-0.54
2019-02-05T01:11:47.239Z,-0.53
2019-02-05T01:12:51.401Z,-0.56
2019-02-05T01:13:55.593Z,-0.52
2019-02-05T01:14:59.688Z,-0.51
2019-02-05T01:16:03.959Z,-0.52
2019-02-05T01:17:08.173Z,-0.53
2019-02-05T01:18:12.369Z,-0.51
2019-02-05T01:19:16.450Z,-0.53
2019-02-05T01:20:20.708Z,-0.51
2019-02-05T01:21:24.784Z,-0.50
2019-02-05T01:22:29.062Z,-0.49
2019-02-05T01:23:33.166Z,-0.50
2019-02-05T01:24:37.460Z,-0.49
2019-02-05T01:25:41.525Z,-0.52
2019-02-05T01:26:45.670Z,-0.49
2019-02-05T01:27:49.850Z,-0.46
2019-02-05T01:28:54.114Z,-0.46
2019-02-05T01:29:58.278Z,-0.47
2019-02-05T01:31:02.466Z,-0.44
2019-02-05T01:32:06.602Z,-0.47
2019-02-05T01:33:10.745Z,-0.43
2019-02-05T01:34:14.885Z,-0.43
2019-02-05T01:35:18.993Z,-0.40
2019-02-05T01:36:23.270Z,-0.39
2019-02-05T01:37:27.360Z,-0.37
2019-02-05T01:38:31.520Z,-0.37
2019-02-05T01:39:35.714Z,-0.36
2019-02-05T01:40:39.976Z,-0.35
2019-02-05T01:41:44.188Z,-0.34
2019-02-05T01:42:48.278Z,-0.33
2019-02-05T01:43:52.509Z,-0.35
2019-02-05T01:44:56.630Z,-0.34
2019-02-05T01:46:00.760Z,-0.34
2019-02-05T01:47:04.893Z,-0.32
2019-02-05T01:48:09.143Z,-0.27
2019-02-05T01:49:13.224Z,-0.29
2019-02-05T01:50:17.363Z,-0.26
2019-02-05T01:51:21.602Z,-0.27
2019-02-05T01:52:25.720Z,-0.23
2019-02-05T01:53:29.954Z,-0.23
2019-02-05T01:54:34.036Z,-0.27
2019-02-05T01:55:38.262Z,-0.27
2019-02-05T01:56:42.473Z,-0.21
2019-02-05T01:57:46.660Z,-0.21
2019-02-05T01:58:50.881Z,-0.16
2019-02-05T01:59:55.022Z,-0.17
2019-02-05T02:00:59.222Z,-0.15
2019-02-05T02:02:03.422Z,-0.13
2019-02-05T02:03:07.517Z,-0.15
2019-02-05T02:04:11.751Z,-0.20
2019-02-05T02:05:15.973Z,-0.21
2019-02-05T02:06:20.136Z,-0.13
2019-02-05T02:07:24.313Z,-0.14
2019-02-05T02:08:28.508Z,-0.10
2019-02-05T02:09:32.610Z,-0.08
2019-02-05T02:10:36.829Z,0.04
2019-02-05T02:11:41.016Z,-0.01
2019-02-05T02:12:45.195Z,-0.02
2019-02-05T02:13:49.276Z,-0.02
2019-02-05T02:14:53.536Z,-0.10
2019-02-05T02:15:57.772Z,-0.04
2019-02-05T02:17:01.951Z,-0.04
2019-02-05T02:18:06.173Z,-0.05
2019-02-05T02:19:10.368Z,-0.08
2019-02-05T02:20:14.562Z,-0.12
2019-02-05T02:21:18.752Z,-0.02
2019-02-05T02:22:22.983Z,0.02
2019-02-05T02:23:27.208Z,0.01
2019-02-05T02:24:31.406Z,-0.02
2019-02-05T02:25:35.476Z,0.02
2019-02-05T02:26:39.719Z,0.08
2019-02-05T02:27:43.880Z,0.00
2019-02-05T02:28:47.992Z,0.06
2019-02-05T02:29:52.224Z,0.05
2019-02-05T02:30:56.430Z,-0.02
2019-02-05T02:32:00.511Z,-0.07
2019-02-05T02:33:04.716Z,0.00
2019-02-05T02:34:08.867Z,-0.03
2019-02-05T02:35:13.087Z,-0.09
2019-02-05T02:36:17.207Z,-0.11
2019-02-05T02:37:21.399Z,0.02
2019-02-05T02:38:25.549Z,0.06
2019-02-05T02:39:29.788Z,-0.03
2019-02-05T02:40:33.957Z,0.02
2019-02-05T02:41:38.061Z,-0.02
2019-02-05T02:42:42.179Z,-0.04
2019-02-05T02:43:46.463Z,-0.04
2019-02-05T02:44:50.517Z,0.00
2019-02-05T02:45:54.647Z,-0.01
2019-02-05T02:46:58.936Z,0.08
2019-02-05T02:48:03.123Z,0.09
2019-02-05T02:49:07.329Z,0.11
2019-02-05T02:50:11.410Z,0.06
2019-02-05T02:51:15.645Z,0.02
2019-02-05T02:52:19.811Z,0.01
2019-02-05T02:53:23.983Z,0.01
2019-02-05T02:54:28.167Z,0.04
2019-02-05T02:55:32.367Z,0.03
2019-02-05T02:56:36.521Z,0.03
2019-02-05T02:57:40.581Z,0.06
2019-02-05T02:58:44.741Z,0.07
2019-02-05T02:59:48.980Z,0.10
2019-02-05T03:00:53.129Z,0.04
2019-02-05T03:01:57.260Z,0.04
2019-02-05T03:03:01.393Z,0.22
2019-02-05T03:04:05.563Z,0.18
2019-02-05T03:05:09.718Z,0.20
2019-02-05T03:06:13.847Z,0.09
2019-02-05T03:07:17.997Z,0.17
2019-02-05T03:08:22.258Z,0.06
2019-02-05T03:09:26.336Z,0.16
2019-02-05T03:10:30.628Z,0.26
2019-02-05T03:11:34.838Z,0.31
2019-02-05T03:12:39.013Z,0.25
2019-02-05T03:13:43.247Z,0.25
2019-02-05T03:14:47.422Z,0.18
2019-02-05T03:15:51.487Z,0.26
2019-02-05T03:16:55.615Z,0.31
2019-02-05T03:17:59.805Z,0.23
2019-02-05T03:19:04.111Z,0.21
2019-02-05T03:20:08.200Z,0.17
2019-02-05T03:21:15.463Z,0.18
2019-02-05T03:22:18.700Z,0.16
2019-02-05T03:23:22.824Z,0.19
2019-02-05T03:24:26.968Z,0.19
2019-02-05T03:25:31.038Z,0.16
2019-02-05T03:26:35.196Z,0.26
2019-02-05T03:27:39.421Z,0.22
2019-02-05T03:28:43.638Z,0.32
2019-02-05T03:29:47.851Z,0.21
2019-02-05T03:30:53.143Z,0.27
2019-02-05T03:31:56.164Z,0.22
2019-02-05T03:33:00.312Z,0.18
2019-02-05T03:34:04.600Z,0.30
2019-02-05T03:35:08.744Z,0.22
2019-02-05T03:36:12.952Z,0.24
2019-02-05T03:37:17.005Z,0.28
2019-02-05T03:38:21.277Z,0.22
2019-02-05T03:39:25.478Z,0.24
2019-02-05T03:40:29.657Z,0.22
2019-02-05T03:41:33.726Z,0.34
2019-02-05T03:42:38.894Z,0.27
2019-02-05T03:43:42.647Z,0.25
2019-02-05T03:44:46.886Z,0.29
2019-02-05T03:45:50.979Z,0.33
2019-02-05T03:46:55.241Z,0.28
2019-02-05T03:47:59.399Z,0.23
2019-02-05T03:49:03.547Z,0.30
2019-02-05T03:50:07.787Z,0.29
2019-02-05T03:51:11.859Z,0.44
2019-02-05T03:52:15.980Z,0.38
2019-02-05T03:53:20.207Z,0.36
2019-02-05T03:54:24.415Z,0.36
2019-02-05T03:55:28.485Z,0.30
2019-02-05T03:56:32.689Z,0.34
2019-02-05T03:57:36.884Z,0.35
2019-02-05T03:58:40.995Z,0.32
2019-02-05T03:59:45.264Z,0.39
2019-02-05T04:00:49.420Z,0.38
2019-02-05T04:01:53.496Z,0.35
2019-02-05T04:02:57.732Z,0.36
2019-02-05T04:04:01.969Z,0.39
2019-02-05T04:05:06.020Z,0.36
2019-02-05T04:06:10.247Z,0.40
2019-02-05T04:07:14.334Z,0.37
2019-02-05T04:08:18.478Z,0.40
2019-02-05T04:09:22.921Z,0.43
2019-02-05T04:10:26.896Z,0.40
2019-02-05T04:11:30.987Z,0.39
2019-02-05T04:12:35.223Z,0.40
2019-02-05T04:13:39.300Z,0.38
2019-02-05T04:14:43.460Z,0.38
2019-02-05T04:15:47.601Z,0.40
2019-02-05T04:16:51.741Z,0.41
2019-02-05T04:17:56.008Z,0.39
2019-02-05T04:18:59.994Z,0.46
2019-02-05T04:20:04.198Z,0.39
2019-02-05T04:21:08.421Z,0.45
2019-02-05T04:22:12.621Z,0.48
2019-02-05T04:23:16.726Z,0.42
2019-02-05T04:24:20.929Z,0.43
2019-02-05T04:25:25.049Z,0.45
2019-02-05T04:26:29.266Z,0.47
2019-02-05T04:27:43.858Z,0.45
2019-02-05T04:28:37.663Z,0.40
2019-02-05T04:29:41.772Z,0.39
2019-02-05T04:30:45.899Z,0.40
2019-02-05T04:31:50.038Z,0.43
2019-02-05T04:32:54.306Z,0.41
2019-02-05T04:33:58.532Z,0.41
2019-02-05T04:35:02.721Z,0.44
2019-02-05T04:36:06.854Z,0.47
2019-02-05T04:37:11.038Z,0.49
2019-02-05T04:38:15.158Z,0.45
2019-02-05T04:39:19.398Z,0.46
2019-02-05T04:40:23.512Z,0.51
2019-02-05T04:41:27.732Z,0.47
2019-02-05T04:42:34.617Z,0.47
2019-02-05T04:43:36.041Z,0.48
2019-02-05T04:44:40.103Z,0.46
2019-02-05T04:45:44.262Z,0.50
2019-02-05T04:46:48.504Z,0.50
2019-02-05T04:47:52.712Z,0.52
2019-02-05T04:48:59.917Z,0.48
2019-02-05T04:50:03.155Z,0.51
2019-02-05T04:51:07.361Z,0.49
2019-02-05T04:52:11.443Z,0.48
2019-02-05T04:53:15.663Z,0.48
2019-02-05T04:54:19.879Z,0.52
2019-02-05T04:55:23.992Z,0.53
2019-02-05T04:56:28.102Z,0.56
2019-02-05T04:57:32.400Z,0.54
2019-02-05T04:58:36.515Z,0.55
2019-02-05T04:59:40.608Z,0.57
2019-02-05T05:00:44.883Z,0.59
2019-02-05T05:01:49.108Z,0.56
2019-02-05T05:02:54.185Z,0.57
2019-02-05T05:03:58.045Z,0.56
2019-02-05T05:05:02.144Z,0.55
2019-02-05T05:06:06.398Z,0.58
2019-02-05T05:07:10.555Z,0.55
2019-02-05T05:08:14.691Z,0.56
2019-02-05T05:09:18.834Z,0.59
2019-02-05T05:10:23.146Z,0.64
2019-02-05T05:11:27.270Z,0.68
2019-02-05T05:12:31.346Z,0.63
2019-02-05T05:13:35.481Z,0.61
2019-02-05T05:14:39.711Z,0.65
2019-02-05T05:15:43.929Z,0.62
2019-02-05T05:16:48.140Z,0.60
2019-02-05T05:17:52.198Z,0.59
2019-02-05T05:18:56.338Z,0.60
2019-02-05T05:20:00.546Z,0.62
2019-02-05T05:21:04.645Z,0.61
2019-02-05T05:22:08.877Z,0.58
2019-02-05T05:23:12.997Z,0.61
2019-02-05T05:24:17.134Z,0.61
2019-02-05T05:25:21.391Z,0.63
2019-02-05T05:26:25.518Z,0.64
2019-02-05T05:27:29.727Z,0.65
2019-02-05T05:28:33.785Z,0.66
2019-02-05T05:29:37.956Z,0.64
2019-02-05T05:30:42.097Z,0.68
2019-02-05T05:31:46.337Z,0.65
2019-02-05T05:32:50.530Z,0.66
2019-02-05T05:33:54.699Z,0.67
2019-02-05T05:34:58.887Z,0.70
2019-02-05T05:36:02.963Z,0.73
2019-02-05T05:37:07.215Z,0.71
2019-02-05T05:38:11.292Z,0.67
2019-02-05T05:39:15.521Z,0.68
2019-02-05T05:40:19.720Z,0.68
2019-02-05T05:41:23.799Z,0.69
2019-02-05T05:42:28.068Z,0.72
2019-02-05T05:43:32.152Z,0.74
2019-02-05T05:44:36.430Z,0.76
2019-02-05T05:45:40.495Z,0.72
2019-02-05T05:46:44.748Z,0.74
2019-02-05T05:47:48.953Z,0.74
2019-02-05T05:48:53.107Z,0.76
2019-02-05T05:49:57.254Z,0.76
2019-02-05T05:51:01.442Z,0.75
2019-02-05T05:52:05.718Z,0.82
2019-02-05T05:53:09.824Z,0.81
2019-02-05T05:54:13.970Z,0.86
2019-02-05T05:55:18.099Z,0.81
2019-02-05T05:56:22.357Z,0.85
2019-02-05T05:57:26.583Z,0.86
2019-02-05T05:58:30.693Z,0.84
2019-02-05T05:59:34.930Z,0.83
2019-02-05T06:00:39.110Z,0.86
2019-02-05T06:01:43.313Z,0.84
2019-02-05T06:02:47.591Z,0.85
2019-02-05T06:03:51.655Z,0.83
2019-02-05T06:04:55.795Z,0.86
2019-02-05T06:06:00.006Z,0.99
2019-02-05T06:07:04.218Z,0.95
2019-02-05T06:08:08.503Z,0.93
2019-02-05T06:09:12.657Z,0.94
2019-02-05T06:10:16.845Z,0.92
2019-02-05T06:11:21.057Z,0.93
2019-02-05T06:12:25.223Z,0.94
2019-02-05T06:13:29.309Z,0.94
2019-02-05T06:14:33.575Z,0.92
2019-02-05T06:15:37.721Z,0.94
2019-02-05T06:16:41.803Z,0.96
2019-02-05T06:17:46.055Z,0.92
2019-02-05T06:18:50.265Z,0.94
2019-02-05T06:19:54.352Z,0.94
2019-02-05T06:20:58.470Z,0.97
2019-02-05T06:22:02.746Z,0.97
2019-02-05T06:23:06.981Z,1.01
2019-02-05T06:24:11.104Z,1.05
2019-02-05T06:25:15.385Z,1.05
2019-02-05T06:26:20.271Z,1.04
2019-02-05T06:27:23.647Z,1.04
2019-02-05T06:28:34.774Z,1.11
2019-02-05T06:29:32.008Z,1.12
2019-02-05T06:30:36.123Z,1.12
2019-02-05T06:31:40.383Z,1.15
2019-02-05T06:32:44.550Z,1.13
2019-02-05T06:33:48.787Z,1.13
2019-02-05T06:34:52.988Z,1.12
2019-02-05T06:35:57.154Z,1.13
2019-02-05T06:37:01.359Z,1.19
2019-02-05T06:38:05.504Z,1.18
2019-02-05T06:39:09.730Z,1.22
2019-02-05T06:40:13.929Z,1.20
2019-02-05T06:41:18.021Z,1.21
2019-02-05T06:42:22.283Z,1.20
2019-02-05T06:43:26.383Z,1.25
2019-02-05T06:44:30.489Z,1.25
2019-02-05T06:45:34.741Z,1.24
2019-02-05T06:46:38.950Z,1.24
2019-02-05T06:47:43.039Z,1.26
2019-02-05T06:48:47.242Z,1.28
2019-02-05T06:49:51.337Z,1.27
2019-02-05T06:50:56.927Z,1.28
2019-02-05T06:51:59.747Z,1.26
2019-02-05T06:53:03.860Z,1.26
2019-02-05T06:54:08.140Z,1.32
2019-02-05T06:55:12.224Z,1.33
2019-02-05T06:56:16.444Z,1.30
2019-02-05T06:57:20.655Z,1.29
2019-02-05T06:58:24.749Z,1.30
2019-02-05T06:59:29.007Z,1.31
2019-02-05T07:00:33.105Z,1.35
2019-02-05T07:01:37.353Z,1.35
2019-02-05T07:02:41.576Z,1.35
2019-02-05T07:03:45.655Z,1.38
2019-02-05T07:04:49.810Z,1.39
2019-02-05T07:05:54.958Z,1.39
2019-02-05T07:06:58.759Z,1.37
2019-02-05T07:08:02.947Z,1.35
2019-02-05T07:09:07.293Z,1.35
2019-02-05T07:10:11.396Z,1.34
2019-02-05T07:11:15.611Z,1.38
2019-02-05T07:12:19.682Z,1.39
2019-02-05T07:13:23.931Z,1.39
2019-02-05T07:14:28.151Z,1.44
2019-02-05T07:15:32.340Z,1.44
2019-02-05T07:16:36.615Z,1.41
2019-02-05T07:17:49.410Z,1.42
2019-02-05T07:18:44.872Z,1.42
2019-02-05T07:19:49.115Z,1.48
2019-02-05T07:20:53.294Z,1.46
2019-02-05T07:21:57.503Z,1.44
2019-02-05T07:23:01.618Z,1.44
2019-02-05T07:24:06.726Z,1.46
2019-02-05T07:25:10.479Z,1.46
2019-02-05T07:26:14.671Z,1.48
2019-02-05T07:27:18.770Z,1.46
2019-02-05T07:28:23.045Z,1.50
2019-02-05T07:29:27.100Z,1.48
2019-02-05T07:30:31.289Z,1.48
2019-02-05T07:31:35.519Z,1.49
2019-02-05T07:32:39.609Z,1.50
2019-02-05T07:33:43.850Z,1.47
2019-02-05T07:34:48.090Z,1.46
2019-02-05T07:35:52.264Z,1.47
2019-02-05T07:36:56.432Z,1.47
2019-02-05T07:38:00.640Z,1.52
2019-02-05T07:39:04.746Z,1.49
2019-02-05T07:40:08.911Z,1.49
2019-02-05T07:41:13.034Z,1.50
2019-02-05T07:42:17.295Z,1.49
2019-02-05T07:43:21.540Z,1.50
2019-02-05T07:44:25.628Z,1.50
2019-02-05T07:45:29.924Z,1.50
2019-02-05T07:46:34.084Z,1.52
2019-02-05T07:47:38.321Z,1.52
2019-02-05T07:48:42.409Z,1.54
2019-02-05T07:49:46.585Z,1.53
2019-02-05T07:50:50.847Z,1.52
2019-02-05T07:51:54.917Z,1.53
2019-02-05T07:52:59.194Z,1.54
2019-02-05T07:54:03.375Z,1.52
2019-02-05T07:55:07.612Z,1.54
2019-02-05T07:56:13.005Z,1.54
2019-02-05T07:57:15.892Z,1.55
2019-02-05T07:58:20.034Z,1.55
2019-02-05T07:59:24.284Z,1.56
2019-02-05T08:00:28.442Z,1.56
2019-02-05T08:01:32.566Z,1.57
2019-02-05T08:02:36.833Z,1.59
2019-02-05T08:03:40.941Z,1.59
2019-02-05T08:04:45.168Z,1.59
2019-02-05T08:05:49.376Z,1.60
2019-02-05T08:06:53.448Z,1.61
2019-02-05T08:07:57.589Z,1.64
2019-02-05T08:09:01.852Z,1.63
2019-02-05T08:10:06.038Z,1.63
2019-02-05T08:11:10.230Z,1.64
2019-02-05T08:12:14.396Z,1.64
2019-02-05T08:13:18.579Z,1.65
2019-02-05T08:14:22.792Z,1.66
2019-02-05T08:15:26.998Z,1.66
2019-02-05T08:16:33.927Z,1.66
2019-02-05T08:17:35.411Z,1.66
2019-02-05T08:18:39.480Z,1.65
2019-02-05T08:19:43.710Z,1.66
2019-02-05T08:20:47.911Z,1.66
2019-02-05T08:21:52.090Z,1.67
2019-02-05T08:22:56.294Z,1.66
2019-02-05T08:24:00.379Z,1.67
2019-02-05T08:25:04.629Z,1.67
2019-02-05T08:26:08.724Z,1.71
2019-02-05T08:27:12.855Z,1.68
2019-02-05T08:28:17.094Z,1.69
2019-02-05T08:29:21.942Z,1.71
2019-02-05T08:30:25.420Z,1.71
2019-02-05T08:31:29.645Z,1.72
2019-02-05T08:32:33.728Z,1.70
2019-02-05T08:33:37.843Z,1.73
2019-02-05T08:34:42.102Z,1.74
2019-02-05T08:35:46.189Z,1.69
2019-02-05T08:36:50.453Z,1.70
2019-02-05T08:37:54.551Z,1.73
2019-02-05T08:38:58.852Z,1.71
2019-02-05T08:40:02.965Z,1.75
2019-02-05T08:41:07.131Z,1.74
2019-02-05T08:42:11.356Z,1.74
2019-02-05T08:43:15.541Z,1.75
2019-02-05T08:44:19.635Z,1.74
2019-02-05T08:45:23.878Z,1.73
2019-02-05T08:46:28.061Z,1.74
2019-02-05T08:47:32.227Z,1.76
2019-02-05T08:48:36.394Z,1.78
2019-02-05T08:49:40.619Z,1.77
2019-02-05T08:50:44.684Z,1.78
2019-02-05T08:51:48.818Z,1.77
2019-02-05T08:52:53.038Z,1.79
2019-02-05T08:53:57.254Z,1.81
2019-02-05T08:55:01.434Z,1.84
2019-02-05T08:56:05.523Z,1.83
2019-02-05T08:57:09.679Z,1.86
2019-02-05T08:58:13.885Z,1.87
2019-02-05T08:59:17.965Z,1.87
2019-02-05T09:00:22.103Z,1.90
2019-02-05T09:01:26.256Z,1.90
2019-02-05T09:02:30.401Z,1.90
2019-02-05T09:03:34.646Z,1.91
2019-02-05T09:04:38.722Z,1.90
2019-02-05T09:05:42.900Z,1.91
2019-02-05T09:06:47.171Z,1.92
2019-02-05T09:07:51.257Z,1.95
2019-02-05T09:08:55.424Z,1.93
2019-02-05T09:09:59.643Z,1.96
2019-02-05T09:11:03.873Z,1.97
2019-02-05T09:12:08.046Z,1.99
2019-02-05T09:13:12.167Z,2.00
2019-02-05T09:14:16.315Z,2.00
2019-02-05T09:15:29.141Z,2.03
2019-02-05T09:16:24.749Z,2.04
2019-02-05T09:17:28.958Z,2.06
2019-02-05T09:18:33.159Z,2.07
2019-02-05T09:19:37.379Z,2.07
2019-02-05T09:20:41.563Z,2.08
2019-02-05T09:21:45.669Z,2.10
2019-02-05T09:22:49.844Z,2.10
2019-02-05T09:23:54.107Z,2.11
2019-02-05T09:24:58.182Z,2.10
2019-02-05T09:26:02.363Z,2.10
2019-02-05T09:27:06.460Z,2.08
2019-02-05T09:28:13.656Z,2.08
2019-02-05T09:29:16.931Z,2.09
2019-02-05T09:30:21.014Z,2.09
2019-02-05T09:31:25.153Z,2.10
2019-02-05T09:32:35.049Z,2.09
2019-02-05T09:33:33.459Z,2.10
2019-02-05T09:34:37.603Z,2.09
2019-02-05T09:35:41.815Z,2.07
2019-02-05T09:36:45.994Z,2.08
2019-02-05T09:37:50.129Z,2.10
2019-02-05T09:38:54.246Z,2.12
2019-02-05T09:39:58.408Z,2.15
2019-02-05T09:41:02.672Z,2.17
2019-02-05T09:42:06.768Z,2.20
2019-02-05T09:43:10.921Z,2.22
2019-02-05T09:44:15.166Z,2.24
2019-02-05T09:45:19.271Z,2.24
2019-02-05T09:46:23.426Z,2.27
2019-02-05T09:47:27.569Z,2.29
2019-02-05T09:48:31.724Z,2.29
2019-02-05T09:49:35.865Z,2.29
2019-02-05T09:50:44.682Z,2.30
2019-02-05T09:51:44.343Z,2.29
2019-02-05T09:52:48.569Z,2.29
2019-02-05T09:53:52.627Z,2.28
2019-02-05T09:54:56.809Z,2.29
2019-02-05T09:56:01.067Z,2.27
2019-02-05T09:57:05.256Z,2.28
2019-02-05T09:58:09.449Z,2.25
2019-02-05T09:59:13.654Z,2.24
2019-02-05T10:00:17.835Z,2.24
2019-02-05T10:01:21.907Z,2.22
2019-02-05T10:02:26.075Z,2.21
2019-02-05T10:03:30.320Z,2.22
2019-02-05T10:04:34.493Z,2.23
2019-02-05T10:05:38.624Z,2.22
2019-02-05T10:06:42.784Z,2.23
2019-02-05T10:07:47.014Z,2.24
2019-02-05T10:08:51.220Z,2.24
2019-02-05T10:09:55.427Z,2.25
2019-02-05T10:10:59.645Z,2.26
2019-02-05T10:12:03.761Z,2.25
2019-02-05T10:13:07.898Z,2.26
2019-02-05T10:14:12.124Z,2.26
2019-02-05T10:15:16.315Z,2.27
2019-02-05T10:16:20.381Z,2.27
2019-02-05T10:17:24.688Z,2.29
2019-02-05T10:18:28.914Z,2.30
2019-02-05T10:19:33.104Z,2.30
2019-02-05T10:20:37.278Z,2.30
2019-02-05T10:21:41.328Z,2.32
2019-02-05T10:22:45.526Z,2.32
2019-02-05T10:23:49.776Z,2.33
2019-02-05T10:24:53.859Z,2.34
2019-02-05T10:25:57.990Z,2.34
2019-02-05T10:27:02.249Z,2.35
2019-02-05T10:28:06.344Z,2.35
2019-02-05T10:29:10.607Z,2.36
2019-02-05T10:30:14.798Z,2.36
2019-02-05T10:31:18.886Z,2.35
2019-02-05T10:32:23.180Z,2.37
2019-02-05T10:33:27.247Z,2.37
2019-02-05T10:34:34.246Z,2.38
2019-02-05T10:35:35.637Z,2.40
2019-02-05T10:36:39.897Z,2.41
2019-02-05T10:37:44.053Z,2.42
2019-02-05T10:38:48.277Z,2.44
2019-02-05T10:39:52.461Z,2.44
2019-02-05T10:40:56.611Z,2.44
2019-02-05T10:42:00.848Z,2.45
2019-02-05T10:43:05.050Z,2.46
2019-02-05T10:44:09.266Z,2.47
2019-02-05T10:45:13.467Z,2.48
2019-02-05T10:46:17.672Z,2.47
2019-02-05T10:47:21.870Z,2.49
2019-02-05T10:48:25.993Z,2.50
2019-02-05T10:49:30.382Z,2.49
2019-02-05T10:50:34.488Z,2.47
2019-02-05T10:51:38.570Z,2.49
2019-02-05T10:52:42.736Z,2.49
2019-02-05T10:53:46.997Z,2.49
2019-02-05T10:54:51.250Z,2.49
2019-02-05T10:55:55.404Z,2.49
2019-02-05T10:56:59.601Z,2.49
2019-02-05T10:58:03.818Z,2.50
2019-02-05T10:59:08.019Z,2.50
2019-02-05T11:00:12.263Z,2.48
2019-02-05T11:01:16.434Z,2.47
2019-02-05T11:02:20.643Z,2.48
2019-02-05T11:03:24.729Z,2.48
2019-02-05T11:04:29.005Z,2.50
2019-02-05T11:05:33.226Z,2.51
2019-02-05T11:06:37.389Z,2.52
2019-02-05T11:07:41.584Z,2.52
2019-02-05T11:08:45.807Z,2.51
2019-02-05T11:09:50.023Z,2.49
2019-02-05T11:10:54.197Z,2.50
2019-02-05T11:11:58.440Z,2.47
2019-02-05T11:13:02.537Z,2.49
2019-02-05T11:14:06.809Z,2.47
2019-02-05T11:15:11.046Z,2.48
2019-02-05T11:16:15.241Z,2.49
2019-02-05T11:17:19.452Z,2.51
2019-02-05T11:18:23.669Z,2.53
2019-02-05T11:19:27.864Z,2.53
2019-02-05T11:20:32.276Z,2.55
2019-02-05T11:21:36.367Z,2.55
2019-02-05T11:22:40.458Z,2.58
2019-02-05T11:23:44.630Z,2.55
2019-02-05T11:24:48.857Z,2.56
2019-02-05T11:25:53.123Z,2.57
2019-02-05T11:26:57.215Z,2.58
2019-02-05T11:28:01.554Z,2.60
2019-02-05T11:29:05.604Z,2.63
2019-02-05T11:30:19.975Z,2.64
2019-02-05T11:31:14.081Z,2.65
2019-02-05T11:32:18.283Z,2.63
2019-02-05T11:33:22.511Z,2.62
2019-02-05T11:34:26.737Z,2.59
2019-02-05T11:35:31.015Z,2.58
2019-02-05T11:36:35.166Z,2.57
2019-02-05T11:37:39.346Z,2.57
2019-02-05T11:38:43.681Z,2.57
2019-02-05T11:39:47.780Z,2.59
2019-02-05T11:40:52.021Z,2.57
2019-02-05T11:41:56.155Z,2.58
2019-02-05T11:43:00.400Z,2.57
2019-02-05T11:44:04.617Z,2.57
2019-02-05T11:45:08.812Z,2.60
2019-02-05T11:46:13.066Z,2.61
2019-02-05T11:47:17.231Z,2.66
2019-02-05T11:48:21.341Z,2.62
2019-02-05T11:49:25.603Z,2.64
2019-02-05T11:50:29.828Z,2.63
2019-02-05T11:51:33.939Z,2.63
2019-02-05T11:52:38.316Z,2.64
2019-02-05T11:53:42.472Z,2.63
2019-02-05T11:54:46.672Z,2.64
2019-02-05T11:55:50.960Z,2.65
2019-02-05T11:56:55.099Z,2.64
2019-02-05T11:57:59.348Z,2.64
2019-02-05T11:59:03.532Z,2.63
2019-02-05T12:00:07.706Z,2.63
2019-02-05T12:01:12.040Z,2.62
2019-02-05T12:02:16.189Z,2.63
2019-02-05T12:03:20.288Z,2.62
2019-02-05T12:04:24.528Z,2.62
2019-02-05T12:05:28.840Z,2.64
2019-02-05T12:06:32.980Z,2.61
2019-02-05T12:07:37.165Z,2.59
2019-02-05T12:08:41.284Z,2.61
2019-02-05T12:09:45.557Z,2.59
2019-02-05T12:10:49.722Z,2.60
2019-02-05T12:11:53.952Z,2.60
2019-02-05T12:12:58.174Z,2.61
2019-02-05T12:14:02.318Z,2.60
2019-02-05T12:15:06.494Z,2.60
2019-02-05T12:16:10.861Z,2.61
2019-02-05T12:17:15.013Z,2.63
2019-02-05T12:18:19.132Z,2.65
2019-02-05T12:19:23.386Z,2.68
2019-02-05T12:20:27.622Z,2.68
2019-02-05T12:21:31.793Z,2.68
2019-02-05T12:22:36.003Z,2.69
2019-02-05T12:23:40.197Z,2.71
2019-02-05T12:24:44.314Z,2.72
2019-02-05T12:25:48.568Z,2.71
2019-02-05T12:26:52.826Z,2.72
2019-02-05T12:27:56.916Z,2.71
2019-02-05T12:29:01.166Z,2.72
2019-02-05T12:30:05.359Z,2.73
2019-02-05T12:31:09.566Z,2.71
2019-02-05T12:32:13.698Z,2.70
2019-02-05T12:33:17.938Z,2.70
2019-02-05T12:34:22.261Z,2.68
2019-02-05T12:35:26.431Z,2.68
2019-02-05T12:36:30.525Z,2.69
2019-02-05T12:37:34.760Z,2.68
2019-02-05T12:38:38.965Z,2.67
2019-02-05T12:39:43.151Z,2.65
2019-02-05T12:40:47.256Z,2.64
2019-02-05T12:41:51.516Z,2.63
2019-02-05T12:42:55.696Z,2.64
2019-02-05T12:43:59.936Z,2.63
2019-02-05T12:45:04.108Z,2.63
2019-02-05T12:46:08.295Z,2.64
2019-02-05T12:47:12.519Z,2.66
2019-02-05T12:48:16.737Z,2.67
2019-02-05T12:49:20.837Z,2.68
2019-02-05T12:50:25.104Z,2.69
2019-02-05T12:51:29.318Z,2.70
2019-02-05T12:52:33.587Z,2.71
2019-02-05T12:53:37.805Z,2.70
2019-02-05T12:54:42.014Z,2.71
2019-02-05T12:55:46.122Z,2.71
2019-02-05T12:56:50.274Z,2.71
2019-02-05T12:57:54.579Z,2.73
2019-02-05T12:58:58.657Z,2.74
2019-02-05T13:00:02.930Z,2.75
2019-02-05T13:01:07.057Z,2.75
2019-02-05T13:02:11.320Z,2.75
2019-02-05T13:03:15.429Z,2.75
2019-02-05T13:04:19.668Z,2.74
2019-02-05T13:05:23.891Z,2.75
2019-02-05T13:06:27.999Z,2.74
2019-02-05T13:07:32.242Z,2.76
2019-02-05T13:08:36.453Z,2.76
2019-02-05T13:09:40.539Z,2.69
2019-02-05T13:10:44.681Z,2.69
2019-02-05T13:11:48.957Z,2.68
2019-02-05T13:12:53.174Z,2.67
2019-02-05T13:13:57.359Z,2.68
2019-02-05T13:15:01.594Z,2.69
2019-02-05T13:16:05.820Z,2.80
2019-02-05T13:17:10.088Z,2.86
2019-02-05T13:18:14.306Z,2.91
2019-02-05T13:19:18.402Z,3.01
2019-02-05T13:20:22.622Z,3.14
2019-02-05T13:21:26.812Z,3.22
2019-02-05T13:22:30.987Z,3.32
2019-02-05T13:23:35.254Z,3.42
2019-02-05T13:24:39.360Z,3.51
2019-02-05T13:25:43.669Z,3.60
2019-02-05T13:26:47.768Z,3.66
2019-02-05T13:27:52.088Z,3.71
2019-02-05T13:28:56.284Z,3.69
2019-02-05T13:30:00.507Z,3.66
2019-02-05T13:31:08.155Z,3.76
2019-02-05T13:32:08.931Z,3.78
2019-02-05T13:33:13.146Z,3.68
2019-02-05T13:34:17.388Z,3.72
2019-02-05T13:35:21.576Z,3.69
2019-02-05T13:36:25.814Z,3.73
2019-02-05T13:37:30.029Z,3.79
2019-02-05T13:38:34.301Z,3.45
2019-02-05T13:39:38.512Z,3.54
2019-02-05T13:40:42.636Z,3.41
2019-02-05T13:41:46.810Z,3.47
2019-02-05T13:42:51.081Z,3.30
2019-02-05T13:43:55.313Z,3.29
2019-02-05T13:44:59.472Z,3.21
2019-02-05T13:46:03.701Z,3.14
2019-02-05T13:47:07.860Z,3.12
2019-02-05T13:48:12.027Z,3.12
2019-02-05T13:49:16.286Z,3.15
2019-02-05T13:50:32.097Z,3.17
2019-02-05T13:51:24.693Z,3.20
2019-02-05T13:52:29.023Z,3.11
2019-02-05T13:53:33.040Z,3.17
2019-02-05T13:54:37.235Z,3.18
2019-02-05T13:55:41.498Z,3.15
2019-02-05T13:56:45.701Z,3.07
2019-02-05T13:57:49.796Z,3.07
2019-02-05T13:58:54.058Z,3.02
2019-02-05T13:59:58.263Z,3.02
2019-02-05T14:01:02.475Z,3.01
2019-02-05T14:02:09.762Z,3.00
2019-02-05T14:03:13.009Z,3.02
2019-02-05T14:04:17.224Z,3.04
2019-02-05T14:05:21.438Z,3.02
2019-02-05T14:06:25.532Z,2.96
2019-02-05T14:07:29.786Z,2.98
2019-02-05T14:08:34.018Z,3.00